»·PEaware :: SWA24 KSAN-KSBP

SWA24 :: KSAN-KSBP

FLIGHT INFORMATION

Flight Status: Arrived
Operator:
Southwest Airlines
More flights by this operator :: More flights under this callsign
Pilot: Alex K. (14822)
Aircraft: BOEING 737-200
(B732)
More flights by this aircraft type
Origin: KSAN San Diego Intl-Lindbergh
United States
Destination: KSBP San Luis Co Regl
United States
More flights between these airports :: More routes between these airports
Route: +PEBLE6 SLI LAX J88 RZS J501 PEGRS
File this flight plan on PilotEdge
Remarks: PBN / A1B2 NAV / RNVD1E2A1 DAT / V DOF / 180114 REG / N275SB RMK / NRP SIMBRIEF
Altitude:
(Current/Filed)
26,000ft
Speed:
(Current/Filed)
439kts
Departed: 13-Jan-18 08:50 PM
Arrived: 13-Jan-18 09:34 PM
Distance/Time
Traveled:
228nm/0:43
Distance/Time
To Go:
Arrived

Flight Plot

Page will automatically refresh every two minutes.

Flight plan parsing failed; only flown route is shown


Map Options




Map Legend


Flown Route
Filed Route
Departure Airport
Arrival Airport
Navaid (VOR, NDB)
Fix

Horizontal Profiles

Position Reports

Time Latitude Longitude Heading Altitude Ground
Speed
13-Jan-18 20:40 32.732456 -117.195340 311 21ft 0kts
13-Jan-18 20:41 32.732456 -117.195340 311 21ft 0kts
13-Jan-18 20:42 32.732456 -117.195340 311 21ft 0kts
13-Jan-18 20:43 32.732456 -117.195340 311 21ft 0kts
13-Jan-18 20:44 32.732456 -117.195340 311 21ft 0kts
13-Jan-18 20:45 32.732456 -117.195340 311 21ft 0kts
13-Jan-18 20:46 32.732457 -117.195340 311 21ft 0kts
13-Jan-18 20:47 32.732457 -117.195340 311 21ft 0kts
13-Jan-18 20:48 32.732459 -117.195344 311 21ft 0kts
13-Jan-18 20:49 32.732153 -117.194986 338 21ft 2kts
13-Jan-18 20:50 32.731915 -117.194979 17 21ft 0kts
13-Jan-18 20:51 32.731916 -117.194979 17 21ft 0kts
13-Jan-18 20:52 32.733302 -117.192875 106 22ft 18kts
13-Jan-18 20:53 32.731402 -117.184970 106 21ft 30kts
13-Jan-18 20:54 32.729463 -117.176888 88 22ft 11kts
13-Jan-18 20:55 32.730116 -117.175873 328 27ft 12kts
13-Jan-18 20:56 32.738289 -117.209241 292 924ft 160kts
13-Jan-18 20:57 32.766490 -117.262605 303 2863ft 225kts
13-Jan-18 20:58 32.803443 -117.327557 305 5714ft 259kts
13-Jan-18 20:59 32.845703 -117.402057 305 8517ft 284kts
13-Jan-18 21:00 32.897576 -117.473328 329 11125ft 301kts
13-Jan-18 21:01 32.974125 -117.526417 328 12901ft 337kts
13-Jan-18 21:02 33.034289 -117.610422 307 15165ft 345kts
13-Jan-18 21:03 33.092912 -117.701874 306 17085ft 356kts
13-Jan-18 21:04 33.151434 -117.792030 306 18766ft 364kts
13-Jan-18 21:05 33.229113 -117.854911 343 20193ft 376kts
13-Jan-18 21:06 33.323364 -117.887166 341 21430ft 385kts
13-Jan-18 21:07 33.425203 -117.923794 341 22636ft 392kts
13-Jan-18 21:08 33.529700 -117.961846 341 23710ft 399kts
13-Jan-18 21:09 33.632419 -117.999407 340 24689ft 405kts
13-Jan-18 21:10 33.728783 -118.035494 333 25549ft 406kts
13-Jan-18 21:11 33.810277 -118.120628 298 26130ft 407kts
13-Jan-18 21:12 33.853488 -118.227824 294 26134ft 424kts
13-Jan-18 21:13 33.904034 -118.357262 294 26132ft 441kts
13-Jan-18 21:14 33.957141 -118.487575 297 26157ft 453kts
13-Jan-18 21:15 34.015801 -118.619802 297 26155ft 462kts
13-Jan-18 21:16 34.072466 -118.751046 296 26158ft 465kts
13-Jan-18 21:17 34.130823 -118.883551 296 26157ft 467kts
13-Jan-18 21:18 34.191316 -119.021584 296 26156ft 468kts
13-Jan-18 21:19 34.251187 -119.159128 295 26155ft 469kts
13-Jan-18 21:20 34.310374 -119.298507 296 26155ft 469kts
13-Jan-18 21:21 34.366851 -119.431432 296 26154ft 470kts
13-Jan-18 21:22 34.425985 -119.571176 296 26154ft 470kts
13-Jan-18 21:23 34.483663 -119.709201 295 26158ft 471kts
13-Jan-18 21:24 34.560880 -119.832385 318 26155ft 455kts
13-Jan-18 21:25 34.653075 -119.929471 316 24640ft 448kts
13-Jan-18 21:26 34.744138 -120.028785 316 23125ft 427kts
13-Jan-18 21:27 34.828527 -120.121646 316 21123ft 397kts
13-Jan-18 21:28 34.906345 -120.207604 316 19117ft 376kts
13-Jan-18 21:29 34.981738 -120.291124 317 17079ft 360kts
13-Jan-18 21:30 35.053321 -120.370630 317 15094ft 346kts
13-Jan-18 21:31 35.119645 -120.444277 318 13739ft 314kts
13-Jan-18 21:40 35.239355 -120.642044 121 188ft 0kts
13-Jan-18 21:41 35.239355 -120.642044 121 188ft 0kts

Navigation Log

Ident Type
Flight plan parsing failed, navigation log unavailable